sensor_id;sensor_type;location;lat;lon;timestamp;temperature;humidity
6102;DHT22;3081;50.584;7.032;2022-12-18T00:01:36;-6.10;99.90
6102;DHT22;3081;50.584;7.032;2022-12-18T00:04:05;-6.10;99.90
6102;DHT22;3081;50.584;7.032;2022-12-18T00:06:34;-6.20;99.90
6102;DHT22;3081;50.584;7.032;2022-12-18T00:09:02;-6.20;99.90
6102;DHT22;3081;50.584;7.032;2022-12-18T00:11:30;-6.20;99.90
6102;DHT22;3081;50.584;7.032;2022-12-18T00:13:58;-6.20;99.90
6102;DHT22;3081;50.584;7.032;2022-12-18T00:16:28;-6.20;99.90
6102;DHT22;3081;50.584;7.032;2022-12-18T00:18:56;-6.30;99.90
6102;DHT22;3081;50.584;7.032;2022-12-18T00:21:25;-6.30;99.90
6102;DHT22;3081;50.584;7.032;2022-12-18T00:23:52;-6.30;99.90
6102;DHT22;3081;50.584;7.032;2022-12-18T00:26:20;-6.30;99.90
6102;DHT22;3081;50.584;7.032;2022-12-18T00:28:48;-6.30;99.90
6102;DHT22;3081;50.584;7.032;2022-12-18T00:31:17;-6.30;99.90
6102;DHT22;3081;50.584;7.032;2022-12-18T00:33:46;-6.30;99.90
6102;DHT22;3081;50.584;7.032;2022-12-18T00:36:14;-6.30;99.90
6102;DHT22;3081;50.584;7.032;2022-12-18T00:38:43;-6.30;99.90
6102;DHT22;3081;50.584;7.032;2022-12-18T00:41:11;-6.30;99.90
6102;DHT22;3081;50.584;7.032;2022-12-18T00:43:39;-6.30;99.90
6102;DHT22;3081;50.584;7.032;2022-12-18T00:46:05;-6.30;99.90
6102;DHT22;3081;50.584;7.032;2022-12-18T00:48:33;-6.30;99.90
6102;DHT22;3081;50.584;7.032;2022-12-18T00:51:01;-6.40;99.90
6102;DHT22;3081;50.584;7.032;2022-12-18T00:53:28;-6.30;99.90
6102;DHT22;3081;50.584;7.032;2022-12-18T00:55:55;-6.30;99.90
6102;DHT22;3081;50.584;7.032;2022-12-18T00:58:21;-6.30;99.90
6102;DHT22;3081;50.584;7.032;2022-12-18T01:00:48;-6.30;99.90
6102;DHT22;3081;50.584;7.032;2022-12-18T01:03:15;-6.30;99.90
6102;DHT22;3081;50.584;7.032;2022-12-18T01:05:42;-6.40;99.90
6102;DHT22;3081;50.584;7.032;2022-12-18T01:08:11;-6.40;99.90
6102;DHT22;3081;50.584;7.032;2022-12-18T01:10:40;-6.40;99.90
6102;DHT22;3081;50.584;7.032;2022-12-18T01:13:07;-6.20;99.90
6102;DHT22;3081;50.584;7.032;2022-12-18T01:15:34;-6.40;99.90
6102;DHT22;3081;50.584;7.032;2022-12-18T01:18:01;-6.40;99.90
6102;DHT22;3081;50.584;7.032;2022-12-18T01:20:28;-6.50;99.90
6102;DHT22;3081;50.584;7.032;2022-12-18T01:22:55;-6.50;99.90
6102;DHT22;3081;50.584;7.032;2022-12-18T01:25:23;-6.60;99.90
6102;DHT22;3081;50.584;7.032;2022-12-18T01:27:50;-6.70;99.90
6102;DHT22;3081;50.584;7.032;2022-12-18T01:30:17;-6.70;99.90
6102;DHT22;3081;50.584;7.032;2022-12-18T01:32:44;-6.80;99.90
6102;DHT22;3081;50.584;7.032;2022-12-18T01:35:11;-6.80;99.90
6102;DHT22;3081;50.584;7.032;2022-12-18T01:37:38;-6.80;99.90
6102;DHT22;3081;50.584;7.032;2022-12-18T01:40:06;-6.80;99.90
6102;DHT22;3081;50.584;7.032;2022-12-18T01:42:35;-6.80;99.90
6102;DHT22;3081;50.584;7.032;2022-12-18T01:45:06;-6.80;99.90
6102;DHT22;3081;50.584;7.032;2022-12-18T01:47:39;-6.80;99.90
6102;DHT22;3081;50.584;7.032;2022-12-18T01:50:10;-6.80;99.90
6102;DHT22;3081;50.584;7.032;2022-12-18T01:52:38;-6.70;99.90
6102;DHT22;3081;50.584;7.032;2022-12-18T01:55:08;-6.80;99.90
6102;DHT22;3081;50.584;7.032;2022-12-18T01:57:37;-6.70;99.90
6102;DHT22;3081;50.584;7.032;2022-12-18T02:00:07;-6.80;99.90
6102;DHT22;3081;50.584;7.032;2022-12-18T02:02:34;-6.80;99.90
6102;DHT22;3081;50.584;7.032;2022-12-18T02:05:02;-6.90;99.90
6102;DHT22;3081;50.584;7.032;2022-12-18T02:07:37;-6.90;99.90
6102;DHT22;3081;50.584;7.032;2022-12-18T02:10:10;-6.90;99.90
6102;DHT22;3081;50.584;7.032;2022-12-18T02:12:45;-6.90;99.90
6102;DHT22;3081;50.584;7.032;2022-12-18T02:15:18;-6.90;99.90
6102;DHT22;3081;50.584;7.032;2022-12-18T02:17:50;-7.00;99.90
6102;DHT22;3081;50.584;7.032;2022-12-18T02:20:22;-7.00;99.90
6102;DHT22;3081;50.584;7.032;2022-12-18T02:23:01;-7.10;99.90
6102;DHT22;3081;50.584;7.032;2022-12-18T02:25:54;-7.10;99.90
6102;DHT22;3081;50.584;7.032;2022-12-18T02:28:30;-7.10;99.90
6102;DHT22;3081;50.584;7.032;2022-12-18T02:31:00;-7.10;99.90
6102;DHT22;3081;50.584;7.032;2022-12-18T02:33:28;-7.00;99.90
6102;DHT22;3081;50.584;7.032;2022-12-18T02:35:57;-7.00;99.90
6102;DHT22;3081;50.584;7.032;2022-12-18T02:38:25;-7.00;99.90
6102;DHT22;3081;50.584;7.032;2022-12-18T02:40:55;-7.00;99.90
6102;DHT22;3081;50.584;7.032;2022-12-18T02:43:22;-7.00;99.90
6102;DHT22;3081;50.584;7.032;2022-12-18T02:45:52;-7.00;99.90
6102;DHT22;3081;50.584;7.032;2022-12-18T02:48:23;-7.00;99.90
6102;DHT22;3081;50.584;7.032;2022-12-18T02:50:55;-7.00;99.90
6102;DHT22;3081;50.584;7.032;2022-12-18T02:53:26;-7.00;99.90
6102;DHT22;3081;50.584;7.032;2022-12-18T02:56:03;-7.00;99.90
6102;DHT22;3081;50.584;7.032;2022-12-18T02:58:38;-7.00;99.90
6102;DHT22;3081;50.584;7.032;2022-12-18T03:01:11;-7.00;99.90
6102;DHT22;3081;50.584;7.032;2022-12-18T03:03:46;-7.10;99.90
6102;DHT22;3081;50.584;7.032;2022-12-18T03:06:20;-7.10;99.90
6102;DHT22;3081;50.584;7.032;2022-12-18T03:08:52;-7.20;99.90
6102;DHT22;3081;50.584;7.032;2022-12-18T03:11:22;-7.20;99.90
6102;DHT22;3081;50.584;7.032;2022-12-18T03:14:09;-7.10;99.90
6102;DHT22;3081;50.584;7.032;2022-12-18T03:16:39;-7.10;99.90
6102;DHT22;3081;50.584;7.032;2022-12-18T03:19:10;-7.00;99.90
6102;DHT22;3081;50.584;7.032;2022-12-18T03:21:42;-7.00;99.90
6102;DHT22;3081;50.584;7.032;2022-12-18T03:24:10;-7.00;99.90
6102;DHT22;3081;50.584;7.032;2022-12-18T03:26:43;-7.00;99.90
6102;DHT22;3081;50.584;7.032;2022-12-18T03:29:16;-6.90;99.90
6102;DHT22;3081;50.584;7.032;2022-12-18T03:31:48;-6.90;99.90
6102;DHT22;3081;50.584;7.032;2022-12-18T03:34:19;-6.90;99.90
6102;DHT22;3081;50.584;7.032;2022-12-18T03:36:48;-7.00;99.90
6102;DHT22;3081;50.584;7.032;2022-12-18T03:39:15;-6.90;99.90
6102;DHT22;3081;50.584;7.032;2022-12-18T03:41:47;-7.30;99.90
6102;DHT22;3081;50.584;7.032;2022-12-18T03:44:23;-6.90;99.90
6102;DHT22;3081;50.584;7.032;2022-12-18T03:46:58;-6.90;99.90
6102;DHT22;3081;50.584;7.032;2022-12-18T03:49:32;-6.90;99.90
6102;DHT22;3081;50.584;7.032;2022-12-18T03:52:03;-6.90;99.90
6102;DHT22;3081;50.584;7.032;2022-12-18T03:54:32;-6.90;99.90
6102;DHT22;3081;50.584;7.032;2022-12-18T03:57:04;-6.90;99.90
6102;DHT22;3081;50.584;7.032;2022-12-18T03:59:33;-6.90;99.90
6102;DHT22;3081;50.584;7.032;2022-12-18T04:02:01;-6.90;99.90
6102;DHT22;3081;50.584;7.032;2022-12-18T04:04:31;-6.90;99.90
6102;DHT22;3081;50.584;7.032;2022-12-18T04:06:59;-6.80;99.90
6102;DHT22;3081;50.584;7.032;2022-12-18T04:09:27;-6.80;99.90
6102;DHT22;3081;50.584;7.032;2022-12-18T04:11:54;-6.80;99.90
6102;DHT22;3081;50.584;7.032;2022-12-18T04:14:23;-6.80;99.90
6102;DHT22;3081;50.584;7.032;2022-12-18T04:16:50;-6.80;99.90
6102;DHT22;3081;50.584;7.032;2022-12-18T04:19:17;-6.80;99.90
6102;DHT22;3081;50.584;7.032;2022-12-18T04:21:43;-6.80;99.90
6102;DHT22;3081;50.584;7.032;2022-12-18T04:24:11;-6.80;99.90
6102;DHT22;3081;50.584;7.032;2022-12-18T04:26:37;-6.80;99.90
6102;DHT22;3081;50.584;7.032;2022-12-18T04:29:05;-6.80;99.90
6102;DHT22;3081;50.584;7.032;2022-12-18T04:31:33;-6.90;99.90
6102;DHT22;3081;50.584;7.032;2022-12-18T04:34:00;-6.90;99.90
6102;DHT22;3081;50.584;7.032;2022-12-18T04:36:27;-6.90;99.90
6102;DHT22;3081;50.584;7.032;2022-12-18T04:38:54;-6.90;99.90
6102;DHT22;3081;50.584;7.032;2022-12-18T04:41:21;-6.90;99.90
6102;DHT22;3081;50.584;7.032;2022-12-18T04:43:48;-6.90;99.90
6102;DHT22;3081;50.584;7.032;2022-12-18T04:46:15;-6.90;99.90
6102;DHT22;3081;50.584;7.032;2022-12-18T04:48:45;-6.80;99.90
6102;DHT22;3081;50.584;7.032;2022-12-18T04:51:12;-6.90;99.90
6102;DHT22;3081;50.584;7.032;2022-12-18T04:53:39;-6.90;99.90
6102;DHT22;3081;50.584;7.032;2022-12-18T04:56:08;-6.90;99.90
6102;DHT22;3081;50.584;7.032;2022-12-18T04:58:36;-6.80;99.90
6102;DHT22;3081;50.584;7.032;2022-12-18T05:01:03;-6.80;99.90
6102;DHT22;3081;50.584;7.032;2022-12-18T05:03:30;-6.80;99.90
6102;DHT22;3081;50.584;7.032;2022-12-18T05:05:58;-6.80;99.90
6102;DHT22;3081;50.584;7.032;2022-12-18T05:08:25;-6.80;99.90
6102;DHT22;3081;50.584;7.032;2022-12-18T05:10:59;-6.80;99.90
6102;DHT22;3081;50.584;7.032;2022-12-18T05:13:26;-6.80;99.90
6102;DHT22;3081;50.584;7.032;2022-12-18T05:15:54;-6.80;99.90
6102;DHT22;3081;50.584;7.032;2022-12-18T05:18:21;-6.70;99.90
6102;DHT22;3081;50.584;7.032;2022-12-18T05:20:49;-6.70;99.90
6102;DHT22;3081;50.584;7.032;2022-12-18T05:23:18;-6.70;99.90
6102;DHT22;3081;50.584;7.032;2022-12-18T05:25:50;-6.60;99.90
6102;DHT22;3081;50.584;7.032;2022-12-18T05:28:17;-6.60;99.90
6102;DHT22;3081;50.584;7.032;2022-12-18T05:30:47;-6.50;99.90
6102;DHT22;3081;50.584;7.032;2022-12-18T05:33:15;-6.40;99.90
6102;DHT22;3081;50.584;7.032;2022-12-18T05:35:42;-6.40;99.90
6102;DHT22;3081;50.584;7.032;2022-12-18T05:38:09;-6.40;99.90
6102;DHT22;3081;50.584;7.032;2022-12-18T05:40:40;-6.30;99.90
6102;DHT22;3081;50.584;7.032;2022-12-18T05:43:07;-6.30;99.90
6102;DHT22;3081;50.584;7.032;2022-12-18T05:45:37;-6.30;99.90
6102;DHT22;3081;50.584;7.032;2022-12-18T05:48:04;-6.30;99.90
6102;DHT22;3081;50.584;7.032;2022-12-18T05:50:34;-6.40;99.90
6102;DHT22;3081;50.584;7.032;2022-12-18T05:53:01;-6.40;99.90
6102;DHT22;3081;50.584;7.032;2022-12-18T05:55:27;-6.40;99.90
6102;DHT22;3081;50.584;7.032;2022-12-18T05:57:56;-6.40;99.90
6102;DHT22;3081;50.584;7.032;2022-12-18T06:00:23;-6.30;99.90
6102;DHT22;3081;50.584;7.032;2022-12-18T06:02:50;-6.30;99.90
6102;DHT22;3081;50.584;7.032;2022-12-18T06:05:16;-6.20;99.90
6102;DHT22;3081;50.584;7.032;2022-12-18T06:07:43;-6.20;99.90
6102;DHT22;3081;50.584;7.032;2022-12-18T06:10:10;-6.20;99.90
6102;DHT22;3081;50.584;7.032;2022-12-18T06:12:38;-6.20;99.90
6102;DHT22;3081;50.584;7.032;2022-12-18T06:15:07;-6.20;99.90
6102;DHT22;3081;50.584;7.032;2022-12-18T06:17:35;-6.20;99.90
6102;DHT22;3081;50.584;7.032;2022-12-18T06:20:03;-6.20;99.90
6102;DHT22;3081;50.584;7.032;2022-12-18T06:22:32;-6.40;99.90
6102;DHT22;3081;50.584;7.032;2022-12-18T06:24:59;-6.40;99.90
6102;DHT22;3081;50.584;7.032;2022-12-18T06:27:25;-6.40;99.90
6102;DHT22;3081;50.584;7.032;2022-12-18T06:29:52;-6.50;99.90
6102;DHT22;3081;50.584;7.032;2022-12-18T06:32:21;-6.40;99.90
6102;DHT22;3081;50.584;7.032;2022-12-18T06:34:47;-6.40;99.90
6102;DHT22;3081;50.584;7.032;2022-12-18T06:37:14;-6.30;99.90
6102;DHT22;3081;50.584;7.032;2022-12-18T06:39:41;-6.20;99.90
6102;DHT22;3081;50.584;7.032;2022-12-18T06:42:08;-6.10;99.90
6102;DHT22;3081;50.584;7.032;2022-12-18T06:44:35;-6.00;99.90
6102;DHT22;3081;50.584;7.032;2022-12-18T06:47:02;-6.00;99.90
6102;DHT22;3081;50.584;7.032;2022-12-18T06:49:31;-6.10;99.90
6102;DHT22;3081;50.584;7.032;2022-12-18T06:51:57;-6.10;99.90
6102;DHT22;3081;50.584;7.032;2022-12-18T06:54:24;-6.10;99.90
6102;DHT22;3081;50.584;7.032;2022-12-18T06:56:51;-6.20;99.90
6102;DHT22;3081;50.584;7.032;2022-12-18T06:59:18;-6.20;99.90
6102;DHT22;3081;50.584;7.032;2022-12-18T07:01:45;-6.30;99.90
6102;DHT22;3081;50.584;7.032;2022-12-18T07:04:12;-6.20;99.90
6102;DHT22;3081;50.584;7.032;2022-12-18T07:06:40;-6.20;99.90
6102;DHT22;3081;50.584;7.032;2022-12-18T07:09:07;-6.20;99.90
6102;DHT22;3081;50.584;7.032;2022-12-18T07:11:34;-6.20;99.90
6102;DHT22;3081;50.584;7.032;2022-12-18T07:14:02;-6.20;99.90
6102;DHT22;3081;50.584;7.032;2022-12-18T07:16:28;-6.20;99.90
6102;DHT22;3081;50.584;7.032;2022-12-18T07:18:55;-6.20;99.90
6102;DHT22;3081;50.584;7.032;2022-12-18T07:21:23;-6.20;99.90
6102;DHT22;3081;50.584;7.032;2022-12-18T07:23:52;-6.20;99.90
6102;DHT22;3081;50.584;7.032;2022-12-18T07:26:21;-6.10;99.90
6102;DHT22;3081;50.584;7.032;2022-12-18T07:28:49;-6.10;99.90
6102;DHT22;3081;50.584;7.032;2022-12-18T07:31:17;-6.10;99.90
6102;DHT22;3081;50.584;7.032;2022-12-18T07:33:45;-6.00;99.90
6102;DHT22;3081;50.584;7.032;2022-12-18T07:36:12;-6.00;99.90
6102;DHT22;3081;50.584;7.032;2022-12-18T07:38:40;-6.00;99.90
6102;DHT22;3081;50.584;7.032;2022-12-18T07:41:10;-5.90;99.90
6102;DHT22;3081;50.584;7.032;2022-12-18T07:43:37;-5.90;99.90
6102;DHT22;3081;50.584;7.032;2022-12-18T07:46:05;-5.80;99.90
6102;DHT22;3081;50.584;7.032;2022-12-18T07:48:32;-5.70;99.90
6102;DHT22;3081;50.584;7.032;2022-12-18T07:50:59;-5.60;99.90
6102;DHT22;3081;50.584;7.032;2022-12-18T07:53:26;-5.60;99.90
6102;DHT22;3081;50.584;7.032;2022-12-18T07:55:55;-5.50;99.90
6102;DHT22;3081;50.584;7.032;2022-12-18T07:58:24;-5.50;99.90
6102;DHT22;3081;50.584;7.032;2022-12-18T08:00:51;-5.40;99.90
6102;DHT22;3081;50.584;7.032;2022-12-18T08:03:19;-5.40;99.90
6102;DHT22;3081;50.584;7.032;2022-12-18T08:05:46;-5.40;99.90
6102;DHT22;3081;50.584;7.032;2022-12-18T08:08:12;-5.40;99.90
6102;DHT22;3081;50.584;7.032;2022-12-18T08:10:39;-5.30;99.90
6102;DHT22;3081;50.584;7.032;2022-12-18T08:13:06;-5.20;99.90
6102;DHT22;3081;50.584;7.032;2022-12-18T08:15:34;-5.20;99.90
6102;DHT22;3081;50.584;7.032;2022-12-18T08:18:01;-5.10;99.90
6102;DHT22;3081;50.584;7.032;2022-12-18T08:20:28;-5.10;99.90
6102;DHT22;3081;50.584;7.032;2022-12-18T08:22:55;-5.00;99.90
6102;DHT22;3081;50.584;7.032;2022-12-18T08:25:23;-4.90;99.90
6102;DHT22;3081;50.584;7.032;2022-12-18T08:27:50;-4.70;99.90
6102;DHT22;3081;50.584;7.032;2022-12-18T08:30:17;-4.60;99.90
6102;DHT22;3081;50.584;7.032;2022-12-18T08:32:46;-4.40;99.90
6102;DHT22;3081;50.584;7.032;2022-12-18T08:35:14;-4.30;99.90
6102;DHT22;3081;50.584;7.032;2022-12-18T08:37:41;-4.20;99.90
6102;DHT22;3081;50.584;7.032;2022-12-18T08:40:09;-4.00;99.90
6102;DHT22;3081;50.584;7.032;2022-12-18T08:42:36;-3.90;99.90
6102;DHT22;3081;50.584;7.032;2022-12-18T08:45:21;-3.70;99.90
6102;DHT22;3081;50.584;7.032;2022-12-18T08:47:49;-3.50;99.90
6102;DHT22;3081;50.584;7.032;2022-12-18T08:50:16;-3.40;99.90
6102;DHT22;3081;50.584;7.032;2022-12-18T08:52:43;-3.30;99.90
6102;DHT22;3081;50.584;7.032;2022-12-18T08:55:10;-3.10;99.90
6102;DHT22;3081;50.584;7.032;2022-12-18T08:57:37;-2.70;99.90
6102;DHT22;3081;50.584;7.032;2022-12-18T09:00:05;-2.20;99.90
6102;DHT22;3081;50.584;7.032;2022-12-18T09:02:32;-1.70;99.90
6102;DHT22;3081;50.584;7.032;2022-12-18T09:05:00;-1.30;99.90
6102;DHT22;3081;50.584;7.032;2022-12-18T09:07:27;-0.90;99.90
6102;DHT22;3081;50.584;7.032;2022-12-18T09:09:54;-0.60;99.90
6102;DHT22;3081;50.584;7.032;2022-12-18T09:12:20;-0.10;99.90
6102;DHT22;3081;50.584;7.032;2022-12-18T09:14:47;0.30;99.90
6102;DHT22;3081;50.584;7.032;2022-12-18T09:17:14;0.30;99.90
6102;DHT22;3081;50.584;7.032;2022-12-18T09:19:41;0.10;99.90
6102;DHT22;3081;50.584;7.032;2022-12-18T09:22:10;-0.10;99.90
6102;DHT22;3081;50.584;7.032;2022-12-18T09:24:37;-0.20;99.90
6102;DHT22;3081;50.584;7.032;2022-12-18T09:27:03;-0.20;99.90
6102;DHT22;3081;50.584;7.032;2022-12-18T09:29:30;-0.10;99.90
6102;DHT22;3081;50.584;7.032;2022-12-18T09:31:57;0.20;99.90
6102;DHT22;3081;50.584;7.032;2022-12-18T09:34:24;0.60;99.90
6102;DHT22;3081;50.584;7.032;2022-12-18T09:36:51;0.80;99.90
6102;DHT22;3081;50.584;7.032;2022-12-18T09:39:19;0.90;99.90
6102;DHT22;3081;50.584;7.032;2022-12-18T09:41:50;1.20;99.90
6102;DHT22;3081;50.584;7.032;2022-12-18T09:44:25;1.40;99.90
6102;DHT22;3081;50.584;7.032;2022-12-18T09:47:06;1.20;99.90
6102;DHT22;3081;50.584;7.032;2022-12-18T09:49:39;0.90;99.90
6102;DHT22;3081;50.584;7.032;2022-12-18T09:52:11;0.50;99.90
6102;DHT22;3081;50.584;7.032;2022-12-18T09:54:42;0.20;99.90
6102;DHT22;3081;50.584;7.032;2022-12-18T09:57:14;0.10;99.90
6102;DHT22;3081;50.584;7.032;2022-12-18T09:59:42;0.00;99.90
6102;DHT22;3081;50.584;7.032;2022-12-18T10:02:15;-0.10;99.90
6102;DHT22;3081;50.584;7.032;2022-12-18T10:04:43;-0.30;99.90
6102;DHT22;3081;50.584;7.032;2022-12-18T10:07:17;-0.30;99.90
6102;DHT22;3081;50.584;7.032;2022-12-18T10:09:53;-0.40;99.90
6102;DHT22;3081;50.584;7.032;2022-12-18T10:12:28;-0.30;99.90
6102;DHT22;3081;50.584;7.032;2022-12-18T10:15:01;-0.10;99.90
6102;DHT22;3081;50.584;7.032;2022-12-18T10:17:37;-0.10;99.90
6102;DHT22;3081;50.584;7.032;2022-12-18T10:20:13;-0.10;99.90
6102;DHT22;3081;50.584;7.032;2022-12-18T10:22:49;0.00;99.90
6102;DHT22;3081;50.584;7.032;2022-12-18T10:25:22;0.40;99.90
6102;DHT22;3081;50.584;7.032;2022-12-18T10:27:53;0.70;99.90
6102;DHT22;3081;50.584;7.032;2022-12-18T10:30:23;0.90;99.90
6102;DHT22;3081;50.584;7.032;2022-12-18T10:32:51;1.10;99.90
6102;DHT22;3081;50.584;7.032;2022-12-18T10:35:21;1.30;99.90
6102;DHT22;3081;50.584;7.032;2022-12-18T10:38:06;1.30;99.90
6102;DHT22;3081;50.584;7.032;2022-12-18T10:40:48;1.30;99.90
6102;DHT22;3081;50.584;7.032;2022-12-18T10:43:20;1.20;99.90
6102;DHT22;3081;50.584;7.032;2022-12-18T10:46:12;1.20;99.90
6102;DHT22;3081;50.584;7.032;2022-12-18T10:48:47;1.20;99.90
6102;DHT22;3081;50.584;7.032;2022-12-18T10:51:21;1.00;99.90
6102;DHT22;3081;50.584;7.032;2022-12-18T10:53:52;0.70;99.90
6102;DHT22;3081;50.584;7.032;2022-12-18T10:56:22;0.60;99.90
6102;DHT22;3081;50.584;7.032;2022-12-18T10:59:00;0.40;99.90
6102;DHT22;3081;50.584;7.032;2022-12-18T11:01:27;0.50;99.90
6102;DHT22;3081;50.584;7.032;2022-12-18T11:04:08;0.50;99.90
6102;DHT22;3081;50.584;7.032;2022-12-18T11:06:56;0.30;99.90
6102;DHT22;3081;50.584;7.032;2022-12-18T11:09:24;0.20;99.90
6102;DHT22;3081;50.584;7.032;2022-12-18T11:11:55;0.00;99.90
6102;DHT22;3081;50.584;7.032;2022-12-18T11:14:23;-0.10;99.90
6102;DHT22;3081;50.584;7.032;2022-12-18T11:16:52;-0.20;99.90
6102;DHT22;3081;50.584;7.032;2022-12-18T11:19:29;-0.20;99.90
6102;DHT22;3081;50.584;7.032;2022-12-18T11:21:56;-0.10;99.90
6102;DHT22;3081;50.584;7.032;2022-12-18T11:24:27;-0.10;99.90
6102;DHT22;3081;50.584;7.032;2022-12-18T11:26:58;-0.10;99.90
6102;DHT22;3081;50.584;7.032;2022-12-18T11:29:32;-0.10;99.90
6102;DHT22;3081;50.584;7.032;2022-12-18T11:32:27;-0.20;99.90
6102;DHT22;3081;50.584;7.032;2022-12-18T11:35:02;-0.40;99.90
6102;DHT22;3081;50.584;7.032;2022-12-18T11:37:30;-0.50;99.90
6102;DHT22;3081;50.584;7.032;2022-12-18T11:40:01;-0.50;99.90
6102;DHT22;3081;50.584;7.032;2022-12-18T11:42:37;-0.60;99.90
6102;DHT22;3081;50.584;7.032;2022-12-18T11:45:27;-0.60;99.90
6102;DHT22;3081;50.584;7.032;2022-12-18T11:47:58;-0.60;99.90
6102;DHT22;3081;50.584;7.032;2022-12-18T11:50:31;-0.70;99.90
6102;DHT22;3081;50.584;7.032;2022-12-18T11:52:59;-0.70;99.90
6102;DHT22;3081;50.584;7.032;2022-12-18T11:55:31;-0.70;99.90
6102;DHT22;3081;50.584;7.032;2022-12-18T11:58:09;-0.70;99.90
6102;DHT22;3081;50.584;7.032;2022-12-18T12:00:45;-0.80;99.90
6102;DHT22;3081;50.584;7.032;2022-12-18T12:03:26;-0.80;99.90
6102;DHT22;3081;50.584;7.032;2022-12-18T12:06:03;-0.80;99.90
6102;DHT22;3081;50.584;7.032;2022-12-18T12:08:42;-0.90;99.90
6102;DHT22;3081;50.584;7.032;2022-12-18T12:11:16;-0.80;99.90
6102;DHT22;3081;50.584;7.032;2022-12-18T12:13:52;-0.90;99.90
6102;DHT22;3081;50.584;7.032;2022-12-18T12:16:27;-1.00;99.90
6102;DHT22;3081;50.584;7.032;2022-12-18T12:19:05;-1.00;99.90
6102;DHT22;3081;50.584;7.032;2022-12-18T12:21:39;-1.00;99.90
6102;DHT22;3081;50.584;7.032;2022-12-18T12:24:19;-1.00;99.90
6102;DHT22;3081;50.584;7.032;2022-12-18T12:26:53;-0.90;99.90
6102;DHT22;3081;50.584;7.032;2022-12-18T12:29:36;-0.70;99.90
6102;DHT22;3081;50.584;7.032;2022-12-18T12:32:16;-0.50;99.90
6102;DHT22;3081;50.584;7.032;2022-12-18T12:34:54;-0.40;99.90
6102;DHT22;3081;50.584;7.032;2022-12-18T12:37:32;0.10;99.90
6102;DHT22;3081;50.584;7.032;2022-12-18T12:40:02;-0.20;99.90
6102;DHT22;3081;50.584;7.032;2022-12-18T12:42:34;-0.10;99.90
6102;DHT22;3081;50.584;7.032;2022-12-18T12:45:26;-0.20;99.90
6102;DHT22;3081;50.584;7.032;2022-12-18T12:47:54;-0.40;99.90
6102;DHT22;3081;50.584;7.032;2022-12-18T12:50:24;-0.60;99.90
6102;DHT22;3081;50.584;7.032;2022-12-18T12:52:52;-0.60;99.90
6102;DHT22;3081;50.584;7.032;2022-12-18T12:55:21;-0.60;99.90
6102;DHT22;3081;50.584;7.032;2022-12-18T12:57:58;-0.70;99.90
6102;DHT22;3081;50.584;7.032;2022-12-18T13:00:30;-0.70;99.90
6102;DHT22;3081;50.584;7.032;2022-12-18T13:03:04;-0.80;99.90
6102;DHT22;3081;50.584;7.032;2022-12-18T13:05:41;-0.80;99.90
6102;DHT22;3081;50.584;7.032;2022-12-18T13:08:11;-0.90;99.90
6102;DHT22;3081;50.584;7.032;2022-12-18T13:10:39;-0.80;99.90
6102;DHT22;3081;50.584;7.032;2022-12-18T13:13:08;-0.80;99.90
6102;DHT22;3081;50.584;7.032;2022-12-18T13:15:39;-0.80;99.90
6102;DHT22;3081;50.584;7.032;2022-12-18T13:18:19;-0.70;99.90
6102;DHT22;3081;50.584;7.032;2022-12-18T13:20:47;-0.70;99.90
6102;DHT22;3081;50.584;7.032;2022-12-18T13:23:28;-0.80;99.90
6102;DHT22;3081;50.584;7.032;2022-12-18T13:25:57;-0.80;99.90
6102;DHT22;3081;50.584;7.032;2022-12-18T13:28:50;-0.80;99.90
6102;DHT22;3081;50.584;7.032;2022-12-18T13:34:20;-0.90;99.90
6102;DHT22;3081;50.584;7.032;2022-12-18T13:36:48;-0.90;99.90
6102;DHT22;3081;50.584;7.032;2022-12-18T13:39:31;-1.00;99.90
6102;DHT22;3081;50.584;7.032;2022-12-18T13:45:40;-1.00;99.90
6102;DHT22;3081;50.584;7.032;2022-12-18T13:48:20;-1.10;99.90
6102;DHT22;3081;50.584;7.032;2022-12-18T13:50:59;-1.00;99.90
6102;DHT22;3081;50.584;7.032;2022-12-18T13:53:29;-1.00;99.90
6102;DHT22;3081;50.584;7.032;2022-12-18T13:55:56;-1.10;99.90
6102;DHT22;3081;50.584;7.032;2022-12-18T13:58:23;-1.10;99.90
6102;DHT22;3081;50.584;7.032;2022-12-18T14:00:50;-1.10;99.90
6102;DHT22;3081;50.584;7.032;2022-12-18T14:03:20;-1.20;99.90
6102;DHT22;3081;50.584;7.032;2022-12-18T14:05:53;-1.30;99.90
6102;DHT22;3081;50.584;7.032;2022-12-18T14:08:23;-1.40;99.90
6102;DHT22;3081;50.584;7.032;2022-12-18T14:10:51;-1.50;99.90
6102;DHT22;3081;50.584;7.032;2022-12-18T14:13:24;-1.50;99.90
6102;DHT22;3081;50.584;7.032;2022-12-18T14:15:53;-1.60;99.90
6102;DHT22;3081;50.584;7.032;2022-12-18T14:18:22;-1.50;99.90
6102;DHT22;3081;50.584;7.032;2022-12-18T14:20:51;-1.60;99.90
6102;DHT22;3081;50.584;7.032;2022-12-18T14:23:32;-1.70;99.90
6102;DHT22;3081;50.584;7.032;2022-12-18T14:26:00;-1.80;99.90
6102;DHT22;3081;50.584;7.032;2022-12-18T14:28:28;-1.80;99.90
6102;DHT22;3081;50.584;7.032;2022-12-18T14:30:55;-1.90;99.90
6102;DHT22;3081;50.584;7.032;2022-12-18T14:33:24;-1.90;99.90
6102;DHT22;3081;50.584;7.032;2022-12-18T14:35:54;-1.90;99.90
6102;DHT22;3081;50.584;7.032;2022-12-18T14:38:26;-1.90;99.90
6102;DHT22;3081;50.584;7.032;2022-12-18T14:40:56;-1.90;99.90
6102;DHT22;3081;50.584;7.032;2022-12-18T14:43:23;-2.00;99.90
6102;DHT22;3081;50.584;7.032;2022-12-18T14:45:50;-2.00;99.90
6102;DHT22;3081;50.584;7.032;2022-12-18T14:48:19;-2.10;99.90
6102;DHT22;3081;50.584;7.032;2022-12-18T14:50:58;-2.10;99.90
6102;DHT22;3081;50.584;7.032;2022-12-18T14:53:33;-2.10;99.90
6102;DHT22;3081;50.584;7.032;2022-12-18T14:56:02;-2.20;99.90
6102;DHT22;3081;50.584;7.032;2022-12-18T14:58:30;-2.30;99.90
6102;DHT22;3081;50.584;7.032;2022-12-18T15:00:57;-2.40;99.90
6102;DHT22;3081;50.584;7.032;2022-12-18T15:03:24;-2.40;99.90
6102;DHT22;3081;50.584;7.032;2022-12-18T15:05:51;-2.30;99.90
6102;DHT22;3081;50.584;7.032;2022-12-18T15:08:30;-2.30;99.90
6102;DHT22;3081;50.584;7.032;2022-12-18T15:10:57;-2.30;99.90
6102;DHT22;3081;50.584;7.032;2022-12-18T15:13:26;-2.40;99.90
6102;DHT22;3081;50.584;7.032;2022-12-18T15:15:53;-2.40;99.90
6102;DHT22;3081;50.584;7.032;2022-12-18T15:18:22;-2.40;99.90
6102;DHT22;3081;50.584;7.032;2022-12-18T15:20:52;-2.40;99.90
6102;DHT22;3081;50.584;7.032;2022-12-18T15:23:22;-2.50;99.90
6102;DHT22;3081;50.584;7.032;2022-12-18T15:25:55;-2.50;99.90
6102;DHT22;3081;50.584;7.032;2022-12-18T15:28:27;-2.50;99.90
6102;DHT22;3081;50.584;7.032;2022-12-18T15:31:18;-2.50;99.90
6102;DHT22;3081;50.584;7.032;2022-12-18T15:34:05;-2.60;99.90
6102;DHT22;3081;50.584;7.032;2022-12-18T15:36:32;-2.50;99.90
6102;DHT22;3081;50.584;7.032;2022-12-18T15:39:02;-2.50;99.90
6102;DHT22;3081;50.584;7.032;2022-12-18T15:41:31;-2.50;99.90
6102;DHT22;3081;50.584;7.032;2022-12-18T15:44:00;-2.50;99.90
6102;DHT22;3081;50.584;7.032;2022-12-18T15:46:26;-2.60;99.90
6102;DHT22;3081;50.584;7.032;2022-12-18T15:48:54;-2.50;99.90
6102;DHT22;3081;50.584;7.032;2022-12-18T15:51:23;-2.50;99.90
6102;DHT22;3081;50.584;7.032;2022-12-18T15:53:53;-2.50;99.90
6102;DHT22;3081;50.584;7.032;2022-12-18T15:56:20;-2.50;99.90
6102;DHT22;3081;50.584;7.032;2022-12-18T15:59:10;-2.50;99.90
6102;DHT22;3081;50.584;7.032;2022-12-18T16:01:37;-2.50;99.90
6102;DHT22;3081;50.584;7.032;2022-12-18T16:04:04;-2.50;99.90
6102;DHT22;3081;50.584;7.032;2022-12-18T16:06:31;-2.60;99.90
6102;DHT22;3081;50.584;7.032;2022-12-18T16:08:58;-2.60;99.90
6102;DHT22;3081;50.584;7.032;2022-12-18T16:11:27;-2.60;99.90
6102;DHT22;3081;50.584;7.032;2022-12-18T16:14:11;-2.70;99.90
6102;DHT22;3081;50.584;7.032;2022-12-18T16:16:39;-2.70;99.90
6102;DHT22;3081;50.584;7.032;2022-12-18T16:19:07;-2.60;99.90
6102;DHT22;3081;50.584;7.032;2022-12-18T16:21:34;-2.60;99.90
6102;DHT22;3081;50.584;7.032;2022-12-18T16:24:01;-2.50;99.90
6102;DHT22;3081;50.584;7.032;2022-12-18T16:26:27;-2.50;99.90
6102;DHT22;3081;50.584;7.032;2022-12-18T16:28:54;-2.60;99.90